Terminal Aerodrome Forecast
Issued by NWS Pueblo, CO

Home | Current Version | Previous Version | Text Only | Print | Product List | Glossary On
Versions: 1 2 3 4 5 6 7 8 9 10 11 12 13 14 15 16 17 18 19 20 21 22 23 24
000
FTUS45 KPUB 010534
TAFPUB
TAF
KPUB 010534Z 0106/0206 09009KT P6SM SCT010 BKN030
     FM010700 08005KT 5SM BR BKN008 OVC015
     FM010800 08005KT 3SM BR BKN004 OVC010
     FM011200 VRB05KT 4SM BR BKN007 OVC020
     FM011300 05007KT P6SM SCT020 BKN030
     FM011400 09006KT P6SM SCT030 SCT050
     FM011700 13011KT P6SM SCT080 SCT200=

USA.gov is the U.S. government's official web portal to all federal, state and local government web resources and services.